Misty Dawn — WDC8124 — position and weather

sailwx.info

Track history (hours):
 
Tides and Currents Weather Stations Pressure Air Temp Water Temp Dewpoint Dewpoint Depression Visibility Wind Speed Wind Dir Waves Ship Positions

Misty Dawn

Owner: Katahdin, Inc., Seattle, WA. More information available from US FCC via Universal Licensing System and Coast Guard Vessel Documentation Center.

Last reported at 2016-Jan-20 12:30 UTC. Time now 2016-May-03 06:46 UTC.
Position N 49°11' W 126°53'.
Warning: this ship's position is months out of date.

Length 22 m; draft 25.5 m.

MMSI: 367082010.

Date/timePositionNaut miles runAvg speedWind from/ knotsBaromVisibWave heightAir tempDewpointWater temp
2016-Jan-20 12:30N 49°11' W 126°53'9 9.4
2016-Jan-20 11:30N 49°06' W 126°41'9 9.5
2016-Jan-20 10:33N 49°02' W 126°28'9 9.4
2016-Jan-20 09:33N 48°58' W 126°15'9 9.4
2016-Jan-20 08:33N 48°54' W 126°03'9 9.2
2016-Jan-20 07:33N 48°50' W 125°50'1010.0
2016-Jan-20 06:33N 48°45' W 125°37'10 9.6
2016-Jan-20 05:33N 48°41' W 125°23'1110.1
2016-Jan-20 04:31N 48°36' W 125°10'  
2016-Jan-16 11:14N 48°12' W 123°59'6 9.2
2016-Jan-16 10:33N 48°11' W 123°50'9 9.4
2016-Jan-16 09:33N 48°12' W 123°35'1110.7
2016-Jan-16 08:33N 48°11' W 123°19'10 9.5
2016-Jan-16 07:33N 48°12' W 123°05'1110.2
2016-Jan-16 06:29N 48°10' W 122°49'9 9.9
2016-Jan-16 05:33N 48°04' W 122°38'10 9.7
2016-Jan-16 04:33N 47°56' W 122°30'1010.1
2016-Jan-16 03:33N 47°47' W 122°25'7 6.8
2016-Jan-16 02:33N 47°40' W 122°24'0 0.3
2016-Jan-16 01:33N 47°40' W 122°23'0 0.0
2016-Jan-16 00:33N 47°40' W 122°23'0 0.0
2016-Jan-15 23:33N 47°40' W 122°23'0 0.0
2016-Jan-15 22:33N 47°40' W 122°23'0 0.0
2016-Jan-15 21:33N 47°40' W 122°23'1 0.6
2016-Jan-15 20:33N 47°40' W 122°23'0 0.0
2016-Jan-15 19:33N 47°40' W 122°23'0 0.0
2016-Jan-15 18:33N 47°40' W 122°23'0 0.0
2016-Jan-15 17:33N 47°40' W 122°23'0 0.0
2016-Jan-15 16:33N 47°40' W 122°23'0 0.0
2016-Jan-15 15:33N 47°40' W 122°23'0 0.0
2016-Jan-15 14:33N 47°40' W 122°23'0 0.0
2016-Jan-15 13:33N 47°40' W 122°23'0 0.0
2016-Jan-15 12:33N 47°40' W 122°23'0 0.0
2016-Jan-15 11:33N 47°40' W 122°23'0 0.0
2016-Jan-15 10:33N 47°40' W 122°23'0 0.0
2016-Jan-15 09:33N 47°40' W 122°23'0 0.0
2016-Jan-15 08:33N 47°40' W 122°23'0 0.0
2016-Jan-15 07:33N 47°40' W 122°23'0 0.0
2016-Jan-15 06:33N 47°40' W 122°23'0 0.0
2016-Jan-15 05:33N 47°40' W 122°23'0 0.0
2016-Jan-15 04:33N 47°40' W 122°23'0 0.0
2016-Jan-15 03:33N 47°40' W 122°23'0 0.0
2016-Jan-15 02:33N 47°40' W 122°23'0 0.0
2016-Jan-15 01:33N 47°40' W 122°23'0 0.0
2016-Jan-15 00:33N 47°40' W 122°23'0 0.0
2016-Jan-14 23:33N 47°40' W 122°23'0 0.0
2016-Jan-14 22:33N 47°40' W 122°23'0 0.0
2016-Jan-14 21:33N 47°40' W 122°23'0 0.0
2016-Jan-14 20:33N 47°40' W 122°23'0 0.0
2016-Jan-14 19:33N 47°40' W 122°23'0 0.0
2016-Jan-14 18:33N 47°40' W 122°23'0 0.0
2016-Jan-14 17:33N 47°40' W 122°23'0 0.0
2016-Jan-14 16:33N 47°40' W 122°23'0 0.0
2016-Jan-14 15:33N 47°40' W 122°23'0 0.0
2016-Jan-14 14:33N 47°40' W 122°23'0 0.0
2016-Jan-14 13:33N 47°40' W 122°23'0 0.0
2016-Jan-14 12:33N 47°40' W 122°23'0 0.0
2016-Jan-14 11:33N 47°40' W 122°23'0 0.0
2016-Jan-14 10:33N 47°40' W 122°23'0 0.0
2016-Jan-14 09:33N 47°40' W 122°23'0 0.0
2016-Jan-14 08:33N 47°40' W 122°23'0 0.0
2016-Jan-14 07:33N 47°40' W 122°23'0 0.0
2016-Jan-14 06:33N 47°40' W 122°23'0 0.0
2016-Jan-14 05:33N 47°40' W 122°23'0 0.0
2016-Jan-14 04:33N 47°40' W 122°23'0 0.0
2016-Jan-14 03:33N 47°40' W 122°23'0 0.0
2016-Jan-14 02:33N 47°40' W 122°23'0 0.0
2016-Jan-14 01:33N 47°40' W 122°23'0 0.0
2016-Jan-14 00:33N 47°40' W 122°23'0 0.0
2016-Jan-13 23:33N 47°40' W 122°23'0 0.0
2016-Jan-13 22:33N 47°40' W 122°23'0 0.0
2016-Jan-13 21:33N 47°40' W 122°23'0 0.0
2016-Jan-13 20:33N 47°40' W 122°23'0 0.0
2016-Jan-13 19:33N 47°40' W 122°23'0 0.0
2016-Jan-13 18:33N 47°40' W 122°23'0 0.0
2016-Jan-13 17:33N 47°40' W 122°23'0 0.0
2016-Jan-13 16:33N 47°40' W 122°23'0 0.0
2016-Jan-13 15:33N 47°40' W 122°23'0 0.0
2016-Jan-13 14:33N 47°40' W 122°23'0 0.0
2016-Jan-13 13:33N 47°40' W 122°23'0 0.0
2016-Jan-13 12:33N 47°40' W 122°23'0 0.0
2016-Jan-13 11:33N 47°40' W 122°23'0 0.0
2016-Jan-13 10:33N 47°40' W 122°23'0 0.0
2016-Jan-13 09:33N 47°40' W 122°23'0 0.0
2016-Jan-13 08:33N 47°40' W 122°23'0 0.0
2016-Jan-13 07:33N 47°40' W 122°23'0 0.0
2016-Jan-13 06:33N 47°40' W 122°23'0 0.0
2016-Jan-13 05:33N 47°40' W 122°23'0 0.0
2016-Jan-13 04:33N 47°40' W 122°23'0 0.0
2016-Jan-13 03:33N 47°40' W 122°23'0 0.0
2016-Jan-13 02:33N 47°40' W 122°23'0 0.0
2016-Jan-13 01:33N 47°40' W 122°23'0 0.0
2016-Jan-13 00:33N 47°40' W 122°23'0 0.0
2016-Jan-12 23:33N 47°40' W 122°23'0 0.0
2016-Jan-12 22:33N 47°40' W 122°23'0 0.0
2016-Jan-12 21:33N 47°40' W 122°23'0 0.0
2016-Jan-12 20:33N 47°40' W 122°23'0 0.0
2016-Jan-12 19:33N 47°40' W 122°23'0 0.0
2016-Jan-12 18:33N 47°40' W 122°23'0 0.0
2016-Jan-12 17:33N 47°40' W 122°23'0 0.0
2016-Jan-12 16:33N 47°40' W 122°23'0 0.0
2016-Jan-12 15:33N 47°40' W 122°23'0 0.0
2016-Jan-12 14:33N 47°40' W 122°23'0 0.0
2016-Jan-12 13:33N 47°40' W 122°23'0 0.0
2016-Jan-12 12:33N 47°40' W 122°23'0 0.0
2016-Jan-12 11:33N 47°40' W 122°23'0 0.0
2016-Jan-12 10:33N 47°40' W 122°23'0 0.0
2016-Jan-12 09:33N 47°40' W 122°23'0 0.0
2016-Jan-12 08:33N 47°40' W 122°23'0 0.0
2016-Jan-12 07:33N 47°40' W 122°23'0 0.0
2016-Jan-12 06:33N 47°40' W 122°23'0 0.0
2016-Jan-12 05:33N 47°40' W 122°23'0 0.0
2016-Jan-12 04:33N 47°40' W 122°23'0 0.0
2016-Jan-12 03:33N 47°40' W 122°23'0 0.0
2016-Jan-12 02:33N 47°40' W 122°23'0 0.0
2016-Jan-12 01:33N 47°40' W 122°23'0 0.0
2016-Jan-12 00:33N 47°40' W 122°23'0 0.0
2016-Jan-11 23:34N 47°40' W 122°23'0 0.0
2016-Jan-11 22:33N 47°40' W 122°23'0 0.0
2016-Jan-11 21:33N 47°40' W 122°23'0 0.0
2016-Jan-11 20:33N 47°40' W 122°23'0 0.0
2016-Jan-11 19:33N 47°40' W 122°23'0 0.0
2016-Jan-11 18:33N 47°40' W 122°23'0 0.0
2016-Jan-11 17:33N 47°40' W 122°23'0 0.0
2016-Jan-11 16:33N 47°40' W 122°23'0 0.0
2016-Jan-11 15:33N 47°40' W 122°23'0 0.0
2016-Jan-11 14:33N 47°40' W 122°23'0 0.0
2016-Jan-11 13:33N 47°40' W 122°23'0 0.0
2016-Jan-11 12:33N 47°40' W 122°23'0 0.0
2016-Jan-11 11:33N 47°40' W 122°23'0 0.0
2016-Jan-11 10:33N 47°40' W 122°23'0 0.0
2016-Jan-11 09:33N 47°40' W 122°23'0 0.0
2016-Jan-11 08:33N 47°40' W 122°23'0 0.0
2016-Jan-11 07:33N 47°40' W 122°23'0 0.0
2016-Jan-11 06:33N 47°40' W 122°23'0 0.0
2016-Jan-11 05:33N 47°40' W 122°23'0 0.0
2016-Jan-11 04:33N 47°40' W 122°23'0 0.0
2016-Jan-11 03:33N 47°40' W 122°23'0 0.0
2016-Jan-11 02:33N 47°40' W 122°23'0 0.0
2016-Jan-11 01:33N 47°40' W 122°23'0 0.0
2016-Jan-11 00:34N 47°40' W 122°23'0 0.0
2016-Jan-10 23:33N 47°40' W 122°23'0 0.0
2016-Jan-10 22:33N 47°40' W 122°23'0 0.0
2016-Jan-10 21:33N 47°40' W 122°23'0 0.0
2016-Jan-10 20:33N 47°40' W 122°23'0 0.0
2016-Jan-10 19:33N 47°40' W 122°23'0 0.0
2016-Jan-10 18:33N 47°40' W 122°23'0 0.0
2016-Jan-10 17:34N 47°40' W 122°23'0 0.0
2016-Jan-10 16:33N 47°40' W 122°23'0 0.0
2016-Jan-10 15:33N 47°40' W 122°23'0 0.0
2016-Jan-10 14:33N 47°40' W 122°23'0 0.0
2016-Jan-10 13:33N 47°40' W 122°23'0 0.0
2016-Jan-10 12:33N 47°40' W 122°23'  
Track history (hours):
 
Tides and Currents Weather Stations Pressure Air Temp Water Temp Dewpoint Dewpoint Depression Visibility Wind Speed Wind Dir Waves Ship Positions

Misty Dawn

Owner: Katahdin, Inc., Seattle, WA. More information available from US FCC via Universal Licensing System and Coast Guard Vessel Documentation Center.

Last reported at 2016-Jan-20 12:30 UTC. Time now 2016-May-03 06:46 UTC.
Position N 49°11' W 126°53'.
Warning: this ship's position is months out of date.

Length 22 m; draft 25.5 m.

MMSI: 367082010.

Date/timePositionNaut miles runAvg speedWind from/ knotsBaromVisibWave heightAir tempDewpointWater temp
2016-Jan-20 12:30N 49°11' W 126°53'9 9.4
2016-Jan-20 11:30N 49°06' W 126°41'9 9.5
2016-Jan-20 10:33N 49°02' W 126°28'9 9.4
2016-Jan-20 09:33N 48°58' W 126°15'9 9.4
2016-Jan-20 08:33N 48°54' W 126°03'9 9.2
2016-Jan-20 07:33N 48°50' W 125°50'1010.0
2016-Jan-20 06:33N 48°45' W 125°37'10 9.6
2016-Jan-20 05:33N 48°41' W 125°23'1110.1
2016-Jan-20 04:31N 48°36' W 125°10'  
2016-Jan-16 11:14N 48°12' W 123°59'6 9.2
2016-Jan-16 10:33N 48°11' W 123°50'9 9.4
2016-Jan-16 09:33N 48°12' W 123°35'1110.7
2016-Jan-16 08:33N 48°11' W 123°19'10 9.5
2016-Jan-16 07:33N 48°12' W 123°05'1110.2
2016-Jan-16 06:29N 48°10' W 122°49'9 9.9
2016-Jan-16 05:33N 48°04' W 122°38'10 9.7
2016-Jan-16 04:33N 47°56' W 122°30'1010.1
2016-Jan-16 03:33N 47°47' W 122°25'7 6.8
2016-Jan-16 02:33N 47°40' W 122°24'0 0.3
2016-Jan-16 01:33N 47°40' W 122°23'0 0.0
2016-Jan-16 00:33N 47°40' W 122°23'0 0.0
2016-Jan-15 23:33N 47°40' W 122°23'0 0.0
2016-Jan-15 22:33N 47°40' W 122°23'0 0.0
2016-Jan-15 21:33N 47°40' W 122°23'1 0.6
2016-Jan-15 20:33N 47°40' W 122°23'0 0.0
2016-Jan-15 19:33N 47°40' W 122°23'0 0.0
2016-Jan-15 18:33N 47°40' W 122°23'0 0.0
2016-Jan-15 17:33N 47°40' W 122°23'0 0.0
2016-Jan-15 16:33N 47°40' W 122°23'0 0.0
2016-Jan-15 15:33N 47°40' W 122°23'0 0.0
2016-Jan-15 14:33N 47°40' W 122°23'0 0.0
2016-Jan-15 13:33N 47°40' W 122°23'0 0.0
2016-Jan-15 12:33N 47°40' W 122°23'0 0.0
2016-Jan-15 11:33N 47°40' W 122°23'0 0.0
2016-Jan-15 10:33N 47°40' W 122°23'0 0.0
2016-Jan-15 09:33N 47°40' W 122°23'0 0.0
2016-Jan-15 08:33N 47°40' W 122°23'0 0.0
2016-Jan-15 07:33N 47°40' W 122°23'0 0.0
2016-Jan-15 06:33N 47°40' W 122°23'0 0.0
2016-Jan-15 05:33N 47°40' W 122°23'0 0.0
2016-Jan-15 04:33N 47°40' W 122°23'0 0.0
2016-Jan-15 03:33N 47°40' W 122°23'0 0.0
2016-Jan-15 02:33N 47°40' W 122°23'0 0.0
2016-Jan-15 01:33N 47°40' W 122°23'0 0.0
2016-Jan-15 00:33N 47°40' W 122°23'0 0.0
2016-Jan-14 23:33N 47°40' W 122°23'0 0.0
2016-Jan-14 22:33N 47°40' W 122°23'0 0.0
2016-Jan-14 21:33N 47°40' W 122°23'0 0.0
2016-Jan-14 20:33N 47°40' W 122°23'0 0.0
2016-Jan-14 19:33N 47°40' W 122°23'0 0.0
2016-Jan-14 18:33N 47°40' W 122°23'0 0.0
2016-Jan-14 17:33N 47°40' W 122°23'0 0.0
2016-Jan-14 16:33N 47°40' W 122°23'0 0.0
2016-Jan-14 15:33N 47°40' W 122°23'0 0.0
2016-Jan-14 14:33N 47°40' W 122°23'0 0.0
2016-Jan-14 13:33N 47°40' W 122°23'0 0.0
2016-Jan-14 12:33N 47°40' W 122°23'0 0.0
2016-Jan-14 11:33N 47°40' W 122°23'0 0.0
2016-Jan-14 10:33N 47°40' W 122°23'0 0.0
2016-Jan-14 09:33N 47°40' W 122°23'0 0.0
2016-Jan-14 08:33N 47°40' W 122°23'0 0.0
2016-Jan-14 07:33N 47°40' W 122°23'0 0.0
2016-Jan-14 06:33N 47°40' W 122°23'0 0.0
2016-Jan-14 05:33N 47°40' W 122°23'0 0.0
2016-Jan-14 04:33N 47°40' W 122°23'0 0.0
2016-Jan-14 03:33N 47°40' W 122°23'0 0.0
2016-Jan-14 02:33N 47°40' W 122°23'0 0.0
2016-Jan-14 01:33N 47°40' W 122°23'0 0.0
2016-Jan-14 00:33N 47°40' W 122°23'0 0.0
2016-Jan-13 23:33N 47°40' W 122°23'0 0.0
2016-Jan-13 22:33N 47°40' W 122°23'0 0.0
2016-Jan-13 21:33N 47°40' W 122°23'0 0.0
2016-Jan-13 20:33N 47°40' W 122°23'0 0.0
2016-Jan-13 19:33N 47°40' W 122°23'0 0.0
2016-Jan-13 18:33N 47°40' W 122°23'0 0.0
2016-Jan-13 17:33N 47°40' W 122°23'0 0.0
2016-Jan-13 16:33N 47°40' W 122°23'0 0.0
2016-Jan-13 15:33N 47°40' W 122°23'0 0.0
2016-Jan-13 14:33N 47°40' W 122°23'0 0.0
2016-Jan-13 13:33N 47°40' W 122°23'0 0.0
2016-Jan-13 12:33N 47°40' W 122°23'0 0.0
2016-Jan-13 11:33N 47°40' W 122°23'0 0.0
2016-Jan-13 10:33N 47°40' W 122°23'0 0.0
2016-Jan-13 09:33N 47°40' W 122°23'0 0.0
2016-Jan-13 08:33N 47°40' W 122°23'0 0.0
2016-Jan-13 07:33N 47°40' W 122°23'0 0.0
2016-Jan-13 06:33N 47°40' W 122°23'0 0.0
2016-Jan-13 05:33N 47°40' W 122°23'0 0.0
2016-Jan-13 04:33N 47°40' W 122°23'0 0.0
2016-Jan-13 03:33N 47°40' W 122°23'0 0.0
2016-Jan-13 02:33N 47°40' W 122°23'0 0.0
2016-Jan-13 01:33N 47°40' W 122°23'0 0.0
2016-Jan-13 00:33N 47°40' W 122°23'0 0.0
2016-Jan-12 23:33N 47°40' W 122°23'0 0.0
2016-Jan-12 22:33N 47°40' W 122°23'0 0.0
2016-Jan-12 21:33N 47°40' W 122°23'0 0.0
2016-Jan-12 20:33N 47°40' W 122°23'0 0.0
2016-Jan-12 19:33N 47°40' W 122°23'0 0.0
2016-Jan-12 18:33N 47°40' W 122°23'0 0.0
2016-Jan-12 17:33N 47°40' W 122°23'0 0.0
2016-Jan-12 16:33N 47°40' W 122°23'0 0.0
2016-Jan-12 15:33N 47°40' W 122°23'0 0.0
2016-Jan-12 14:33N 47°40' W 122°23'0 0.0
2016-Jan-12 13:33N 47°40' W 122°23'0 0.0
2016-Jan-12 12:33N 47°40' W 122°23'0 0.0
2016-Jan-12 11:33N 47°40' W 122°23'0 0.0
2016-Jan-12 10:33N 47°40' W 122°23'0 0.0
2016-Jan-12 09:33N 47°40' W 122°23'0 0.0
2016-Jan-12 08:33N 47°40' W 122°23'0 0.0
2016-Jan-12 07:33N 47°40' W 122°23'0 0.0
2016-Jan-12 06:33N 47°40' W 122°23'0 0.0
2016-Jan-12 05:33N 47°40' W 122°23'0 0.0
2016-Jan-12 04:33N 47°40' W 122°23'0 0.0
2016-Jan-12 03:33N 47°40' W 122°23'0 0.0
2016-Jan-12 02:33N 47°40' W 122°23'0 0.0
2016-Jan-12 01:33N 47°40' W 122°23'0 0.0
2016-Jan-12 00:33N 47°40' W 122°23'0 0.0
2016-Jan-11 23:34N 47°40' W 122°23'0 0.0
2016-Jan-11 22:33N 47°40' W 122°23'0 0.0
2016-Jan-11 21:33N 47°40' W 122°23'0 0.0
2016-Jan-11 20:33N 47°40' W 122°23'0 0.0
2016-Jan-11 19:33N 47°40' W 122°23'0 0.0
2016-Jan-11 18:33N 47°40' W 122°23'0 0.0
2016-Jan-11 17:33N 47°40' W 122°23'0 0.0
2016-Jan-11 16:33N 47°40' W 122°23'0 0.0
2016-Jan-11 15:33N 47°40' W 122°23'0 0.0
2016-Jan-11 14:33N 47°40' W 122°23'0 0.0
2016-Jan-11 13:33N 47°40' W 122°23'0 0.0
2016-Jan-11 12:33N 47°40' W 122°23'0 0.0
2016-Jan-11 11:33N 47°40' W 122°23'0 0.0
2016-Jan-11 10:33N 47°40' W 122°23'0 0.0
2016-Jan-11 09:33N 47°40' W 122°23'0 0.0
2016-Jan-11 08:33N 47°40' W 122°23'0 0.0
2016-Jan-11 07:33N 47°40' W 122°23'0 0.0
2016-Jan-11 06:33N 47°40' W 122°23'0 0.0
2016-Jan-11 05:33N 47°40' W 122°23'0 0.0
2016-Jan-11 04:33N 47°40' W 122°23'0 0.0
2016-Jan-11 03:33N 47°40' W 122°23'0 0.0
2016-Jan-11 02:33N 47°40' W 122°23'0 0.0
2016-Jan-11 01:33N 47°40' W 122°23'0 0.0
2016-Jan-11 00:34N 47°40' W 122°23'0 0.0
2016-Jan-10 23:33N 47°40' W 122°23'0 0.0
2016-Jan-10 22:33N 47°40' W 122°23'0 0.0
2016-Jan-10 21:33N 47°40' W 122°23'0 0.0
2016-Jan-10 20:33N 47°40' W 122°23'0 0.0
2016-Jan-10 19:33N 47°40' W 122°23'0 0.0
2016-Jan-10 18:33N 47°40' W 122°23'0 0.0
2016-Jan-10 17:34N 47°40' W 122°23'0 0.0
2016-Jan-10 16:33N 47°40' W 122°23'0 0.0
2016-Jan-10 15:33N 47°40' W 122°23'0 0.0
2016-Jan-10 14:33N 47°40' W 122°23'0 0.0
2016-Jan-10 13:33N 47°40' W 122°23'0 0.0
2016-Jan-10 12:33N 47°40' W 122°23'  

Dump ship's entire track history